Time;durP1;ratioP1;P1;durP2;ratioP2;P2;SDS_P1;SDS_P2;PMS_P1;PMS_P2;Temp;Humidity;BMP_temperature;BMP_pressure;BME280_temperature;BME280_humidity;BME280_pressure;Samples;Min_cycle;Max_cycle;Signal;HPM_P1;HPM_P2
2021/12/09 00:00:12;;;;;;;11.40;3.15;;;;;;;-10.11;89.42;102054.38;5050827;28;20037;-73
2021/12/09 00:02:39;;;;;;;6.22;3.63;;;;;;;-10.09;89.36;102057.75;5080974;28;20530;-73
2021/12/09 00:05:05;;;;;;;10.68;4.88;;;;;;;-10.06;89.44;102061.06;5049050;28;20033;-73
2021/12/09 00:07:31;;;;;;;9.90;4.20;;;;;;;-10.04;89.39;102051.16;5065112;28;20045;-73
2021/12/09 00:09:57;;;;;;;7.10;4.88;;;;;;;-10.01;89.30;102058.06;5064880;28;20561;-73
2021/12/09 00:12:24;;;;;;;8.20;4.50;;;;;;;-9.99;89.42;102055.28;5043902;28;20464;-74
2021/12/09 00:14:50;;;;;;;7.20;5.38;;;;;;;-9.98;89.56;102056.97;5043756;28;20044;-72
2021/12/09 00:17:16;;;;;;;7.82;4.18;;;;;;;-9.97;89.46;102056.00;5060598;28;20087;-71
2021/12/09 00:19:41;;;;;;;7.38;4.70;;;;;;;-9.96;89.62;102061.19;5044137;28;20045;-72
2021/12/09 00:22:09;;;;;;;11.55;5.40;;;;;;;-9.93;89.58;102047.69;5049712;28;20549;-72
2021/12/09 00:24:35;;;;;;;8.98;4.57;;;;;;;-9.91;89.59;102060.84;5048675;28;20089;-72
2021/12/09 00:27:06;;;;;;;9.30;4.70;;;;;;;-9.90;89.62;102058.09;5049160;28;20546;-72
2021/12/09 00:29:32;;;;;;;8.75;4.18;;;;;;;-9.86;89.46;102061.38;5047835;28;20286;-72
2021/12/09 00:31:57;;;;;;;10.73;4.45;;;;;;;-9.85;89.62;102052.44;5048510;28;20139;-73
2021/12/09 00:34:34;;;;;;;9.50;4.13;;;;;;;-9.82;89.57;102062.84;5080877;28;20045;-73
2021/12/09 00:37:17;;;;;;;6.40;4.15;;;;;;;-9.78;89.72;102069.59;5051330;28;20094;-73
2021/12/09 00:39:51;;;;;;;11.25;4.65;;;;;;;-9.79;89.72;102067.91;5046485;28;20103;-73
2021/12/09 00:42:22;;;;;;;13.45;4.75;;;;;;;-9.80;89.79;102061.75;5049186;28;20033;-73
2021/12/09 00:44:48;;;;;;;8.10;4.57;;;;;;;-9.81;89.78;102054.75;5038960;28;20569;-73
2021/12/09 00:47:14;;;;;;;7.97;4.72;;;;;;;-9.77;89.79;102050.06;5052066;28;20083;-73
2021/12/09 00:49:39;;;;;;;8.32;4.90;;;;;;;-9.74;89.78;102055.13;5056279;28;20068;-73
2021/12/09 00:52:06;;;;;;;14.48;4.72;;;;;;;-9.71;89.88;102054.09;5051582;28;20102;-73
2021/12/09 00:54:32;;;;;;;8.40;4.10;;;;;;;-9.69;89.86;102055.66;5057781;28;20384;-73
2021/12/09 00:56:57;;;;;;;5.72;3.38;;;;;;;-9.66;89.79;102057.22;5052457;28;20037;-73
2021/12/09 00:59:23;;;;;;;4.28;3.28;;;;;;;-9.64;89.79;102057.97;5053658;28;20052;-73
2021/12/09 01:01:49;;;;;;;11.20;4.70;;;;;;;-9.61;89.81;102055.91;5060181;28;20388;-73
2021/12/09 01:04:15;;;;;;;4.50;3.53;;;;;;;-9.59;89.78;102053.13;5053279;28;20056;-72
2021/12/09 01:06:40;;;;;;;6.47;4.45;;;;;;;-9.56;89.85;102040.47;5055050;28;20094;-72
2021/12/09 01:09:06;;;;;;;3.30;2.75;;;;;;;-9.55;89.91;102047.47;5058915;28;20048;-72
2021/12/09 01:11:32;;;;;;;7.13;3.33;;;;;;;-9.52;89.88;102039.28;5058466;28;20032;-72
2021/12/09 01:13:58;;;;;;;7.22;4.30;;;;;;;-9.49;89.94;102047.03;5063321;28;20044;-73
2021/12/09 01:16:24;;;;;;;9.70;4.70;;;;;;;-9.48;89.83;102051.38;5070058;28;20043;-73
2021/12/09 01:18:50;;;;;;;7.05;4.80;;;;;;;-9.45;89.95;102048.47;5057999;28;20029;-73
2021/12/09 01:21:16;;;;;;;6.07;4.32;;;;;;;-9.43;89.97;102043.88;5055404;28;20042;-73
2021/12/09 01:23:42;;;;;;;8.48;4.47;;;;;;;-9.39;89.92;102044.50;5068731;28;20051;-73
2021/12/09 01:26:09;;;;;;;10.20;4.80;;;;;;;-9.38;90.01;102043.53;5057365;28;20106;-73
2021/12/09 01:28:46;;;;;;;4.43;3.83;;;;;;;-9.35;89.92;102037.16;5050896;28;20033;-74
2021/12/09 01:31:19;;;;;;;8.98;4.55;;;;;;;-9.35;90.03;102029.19;5043571;28;20048;-73
2021/12/09 01:33:46;;;;;;;10.73;4.88;;;;;;;-9.35;90.03;102035.34;5064547;28;20028;-73
2021/12/09 01:36:12;;;;;;;7.72;4.15;;;;;;;-9.34;89.86;102039.69;5052505;28;20533;-73
2021/12/09 01:38:37;;;;;;;9.48;4.70;;;;;;;-9.33;90.06;102044.03;5060564;28;20060;-74
2021/12/09 01:41:03;;;;;;;7.97;4.05;;;;;;;-9.30;89.90;102048.28;5051789;28;20076;-73
2021/12/09 01:43:29;;;;;;;10.18;4.30;;;;;;;-9.31;89.97;102043.94;5057326;28;20396;-73
2021/12/09 01:46:09;;;;;;;7.82;4.32;;;;;;;-9.32;90.11;102048.38;5051265;28;20184;-73
2021/12/09 01:48:36;;;;;;;9.48;5.63;;;;;;;-9.31;90.14;102052.75;5054499;28;20171;-74
2021/12/09 01:51:02;;;;;;;18.38;7.70;;;;;;;-9.32;90.02;102050.19;5051593;28;20599;-73
2021/12/09 01:53:28;;;;;;;10.82;6.28;;;;;;;-9.33;90.08;102051.16;5050857;28;20037;-73
2021/12/09 01:55:55;;;;;;;16.33;6.88;;;;;;;-9.34;90.21;102060.09;5075660;28;20056;-73
2021/12/09 01:58:21;;;;;;;21.40;6.57;;;;;;;-9.35;90.13;102061.06;5069354;28;20040;-73
2021/12/09 02:00:47;;;;;;;13.98;6.97;;;;;;;-9.35;90.23;102056.59;5056907;28;20033;-73
2021/12/09 02:03:12;;;;;;;8.60;5.00;;;;;;;-9.36;90.26;102060.22;5051739;28;20043;-73
2021/12/09 02:05:41;;;;;;;9.30;4.70;;;;;;;-9.37;90.28;102057.66;5052591;28;20036;-72
2021/12/09 02:08:14;;;;;;;9.18;4.95;;;;;;;-9.38;90.28;102055.97;5054506;28;20032;-72
2021/12/09 02:10:40;;;;;;;8.48;4.90;;;;;;;-9.38;90.22;102061.28;5051838;28;20496;-73
2021/12/09 02:13:06;;;;;;;9.60;5.85;;;;;;;-9.39;90.24;102059.59;5050749;28;20086;-72
2021/12/09 02:15:33;;;;;;;10.55;5.75;;;;;;;-9.39;90.23;102063.09;5054944;28;20049;-73
2021/12/09 02:17:58;;;;;;;9.85;5.63;;;;;;;-9.39;90.22;102064.91;5061953;28;20058;-72
2021/12/09 02:20:27;;;;;;;8.38;5.63;;;;;;;-9.40;90.24;102064.06;5066762;28;20514;-72
2021/12/09 02:22:52;;;;;;;7.60;5.20;;;;;;;-9.39;90.22;102067.56;5053822;28;20045;-72
2021/12/09 02:25:18;;;;;;;13.07;6.40;;;;;;;-9.40;90.22;102061.41;5057597;28;20032;-72
2021/12/09 02:27:44;;;;;;;6.18;4.07;;;;;;;-9.42;90.11;102069.50;5071518;28;20094;-72
2021/12/09 02:30:11;;;;;;;14.20;5.65;;;;;;;-9.45;90.23;102069.72;5045148;28;20029;-74
2021/12/09 02:32:37;;;;;;;12.77;6.20;;;;;;;-9.46;90.20;102067.19;5054548;28;20074;-72
2021/12/09 02:35:03;;;;;;;8.82;4.53;;;;;;;-9.46;90.16;102064.53;5074727;28;20094;-72
2021/12/09 02:37:29;;;;;;;11.35;5.50;;;;;;;-9.48;90.25;102062.00;5034940;28;20141;-72
2021/12/09 02:39:56;;;;;;;8.40;5.78;;;;;;;-9.50;90.22;102079.88;5064160;28;20478;-73
2021/12/09 02:42:24;;;;;;;11.00;5.07;;;;;;;-9.49;90.19;102078.91;5051691;28;20040;-72
2021/12/09 02:44:50;;;;;;;8.82;6.03;;;;;;;-9.48;90.17;102079.75;5061094;28;20074;-73
2021/12/09 02:47:15;;;;;;;11.70;4.93;;;;;;;-9.48;90.10;102082.41;5071176;28;20411;-73
2021/12/09 02:49:41;;;;;;;13.07;6.57;;;;;;;-9.49;90.17;102080.72;5052115;28;20499;-73
2021/12/09 02:52:07;;;;;;;7.95;4.78;;;;;;;-9.51;90.18;102074.69;5054250;28;20039;-73
2021/12/09 02:54:33;;;;;;;9.80;5.90;;;;;;;-9.53;90.21;102077.44;5055918;28;20044;-73
2021/12/09 02:57:02;;;;;;;13.70;6.97;;;;;;;-9.54;90.21;102073.09;5066157;28;20124;-73
2021/12/09 02:59:28;;;;;;;9.00;4.85;;;;;;;-9.55;90.16;102079.34;5083181;28;20064;-73
2021/12/09 03:02:00;;;;;;;14.30;6.45;;;;;;;-9.55;90.17;102087.31;5066890;28;20491;-73
2021/12/09 03:04:47;;;;;;;17.23;6.72;;;;;;;-9.56;90.19;102085.63;5061885;28;20036;-73
2021/12/09 03:07:23;;;;;;;14.05;6.90;;;;;;;-9.58;90.13;102097.34;5051044;28;20047;-73
2021/12/09 03:09:51;;;;;;;12.60;6.30;;;;;;;-9.60;90.17;102086.81;5042500;28;20033;-73
2021/12/09 03:12:23;;;;;;;7.78;5.15;;;;;;;-9.65;90.12;102086.34;5082249;28;20029;-73
2021/12/09 03:14:49;;;;;;;17.17;5.78;;;;;;;-9.67;90.01;102098.03;5048724;28;20348;-72
2021/12/09 03:17:15;;;;;;;9.70;5.50;;;;;;;-9.69;90.07;102102.63;5050396;28;20127;-72
2021/12/09 03:19:40;;;;;;;13.90;6.43;;;;;;;-9.71;90.16;102100.09;5068945;28;20606;-72
2021/12/09 03:22:06;;;;;;;15.13;5.75;;;;;;;-9.71;90.12;102097.44;5049127;28;20048;-73
2021/12/09 03:24:32;;;;;;;12.95;7.30;;;;;;;-9.72;90.09;102106.31;5049536;28;20417;-73
2021/12/09 03:26:58;;;;;;;19.27;6.97;;;;;;;-9.75;90.04;102106.56;5052438;28;20043;-73
2021/12/09 03:29:25;;;;;;;13.70;7.05;;;;;;;-9.78;90.10;102106.78;5076310;28;20035;-73
2021/12/09 03:31:53;;;;;;;12.35;6.10;;;;;;;-9.80;90.00;102101.59;5082685;28;20482;-73
2021/12/09 03:34:20;;;;;;;12.63;6.55;;;;;;;-9.83;90.09;102100.97;5053989;28;20048;-72
2021/12/09 03:36:48;;;;;;;13.05;5.45;;;;;;;-9.85;90.00;102117.03;5051727;28;20036;-73
2021/12/09 03:39:17;;;;;;;11.90;5.78;;;;;;;-9.85;89.94;102103.75;5054576;28;20033;-73
2021/12/09 03:41:45;;;;;;;12.85;5.45;;;;;;;-9.85;90.18;102105.56;5050144;28;20037;-72
2021/12/09 03:44:11;;;;;;;20.55;6.70;;;;;;;-9.89;90.00;102102.28;5066065;28;20049;-72
2021/12/09 03:46:36;;;;;;;10.13;5.60;;;;;;;-9.91;89.96;102108.66;5050598;28;20388;-72
2021/12/09 03:49:03;;;;;;;11.93;5.15;;;;;;;-9.94;90.03;102108.88;5051150;28;20033;-73
2021/12/09 03:51:29;;;;;;;12.18;6.28;;;;;;;-9.98;90.02;102115.38;5050295;28;20079;-73
2021/12/09 03:53:54;;;;;;;13.77;6.15;;;;;;;-10.02;90.03;102120.06;5081076;28;20419;-73
2021/12/09 03:56:20;;;;;;;12.25;6.03;;;;;;;-10.08;90.02;102121.34;5049586;28;20384;-73
2021/12/09 03:58:46;;;;;;;13.90;6.80;;;;;;;-10.13;90.00;102115.53;5047519;28;20041;-72
2021/12/09 04:01:12;;;;;;;12.30;5.97;;;;;;;-10.18;90.00;102116.81;5037182;28;20127;-72
2021/12/09 04:03:37;;;;;;;12.60;6.18;;;;;;;-10.25;90.03;102118.25;5081605;28;20078;-73
2021/12/09 04:06:03;;;;;;;12.75;6.35;;;;;;;-10.31;90.02;102127.50;5050433;28;20123;-72
2021/12/09 04:08:29;;;;;;;17.55;6.93;;;;;;;-10.35;90.03;102134.00;5049407;28;20037;-73
2021/12/09 04:10:54;;;;;;;14.07;7.53;;;;;;;-10.42;89.96;102119.44;5050147;28;20040;-74
2021/12/09 04:13:20;;;;;;;19.85;10.07;;;;;;;-10.47;90.05;102125.09;5048511;28;20048;-72
2021/12/09 04:15:47;;;;;;;17.55;8.40;;;;;;;-10.52;90.10;102132.53;5049694;28;20175;-73
2021/12/09 04:18:12;;;;;;;15.60;6.65;;;;;;;-10.56;89.91;102130.22;5051766;28;20044;-73
2021/12/09 04:20:38;;;;;;;12.48;6.28;;;;;;;-10.61;89.99;102132.31;5050137;28;20041;-72
2021/12/09 04:23:05;;;;;;;17.48;6.80;;;;;;;-10.65;89.96;102132.53;5068060;28;20086;-73
2021/12/09 04:25:31;;;;;;;14.77;7.85;;;;;;;-10.69;89.97;102130.22;5069397;28;20087;-73
2021/12/09 04:27:57;;;;;;;13.23;6.63;;;;;;;-10.73;89.99;102134.88;5054971;28;20075;-73
2021/12/09 04:30:24;;;;;;;10.13;5.53;;;;;;;-10.77;89.91;102143.97;5055204;28;20056;-74
2021/12/09 04:32:52;;;;;;;13.18;5.55;;;;;;;-10.79;89.91;102145.91;5056830;28;20078;-73
2021/12/09 04:35:18;;;;;;;12.93;6.65;;;;;;;-10.82;89.84;102146.13;5050816;28;20044;-73
2021/12/09 04:37:43;;;;;;;15.10;6.95;;;;;;;-10.83;89.75;102136.47;5069098;28;20037;-73
2021/12/09 04:40:11;;;;;;;7.18;4.25;;;;;;;-10.86;90.04;102141.13;5053449;28;20044;-74
2021/12/09 04:42:37;;;;;;;10.55;5.88;;;;;;;-10.88;89.89;102146.56;5085542;28;20029;-74
2021/12/09 04:45:05;;;;;;;14.80;6.07;;;;;;;-10.90;89.83;102142.31;5035266;28;20124;-73
2021/12/09 04:47:30;;;;;;;11.15;4.72;;;;;;;-10.93;89.71;102142.50;5053363;28;20167;-73
2021/12/09 04:49:56;;;;;;;9.10;5.30;;;;;;;-10.96;89.89;102148.84;5051690;28;20131;-73
2021/12/09 04:52:21;;;;;;;13.43;6.68;;;;;;;-10.99;89.78;102139.31;5085576;28;20116;-73
2021/12/09 04:54:47;;;;;;;12.05;6.28;;;;;;;-11.03;89.81;102131.69;5053717;28;20135;-73
2021/12/09 04:57:15;;;;;;;12.80;6.95;;;;;;;-11.05;89.98;102139.75;5053303;28;20044;-73
2021/12/09 04:59:40;;;;;;;10.20;5.50;;;;;;;-11.06;89.96;102148.66;5053288;28;20041;-73
2021/12/09 05:02:17;;;;;;;12.10;6.35;;;;;;;-11.08;90.05;102152.38;5052770;28;20037;-74
2021/12/09 05:04:43;;;;;;;9.40;5.20;;;;;;;-11.08;90.06;102149.72;5059247;28;20056;-73
2021/12/09 05:07:08;;;;;;;11.88;5.55;;;;;;;-11.10;90.19;102149.81;5052709;28;20037;-72
2021/12/09 05:09:38;;;;;;;9.05;5.45;;;;;;;-11.10;90.19;102156.94;5047758;28;20439;-73
2021/12/09 05:12:05;;;;;;;9.63;5.63;;;;;;;-11.15;90.29;102148.41;5049083;28;20056;-73
2021/12/09 05:14:31;;;;;;;9.70;5.60;;;;;;;-11.15;90.35;102154.56;5051965;28;20077;-74
2021/12/09 05:16:57;;;;;;;12.30;6.22;;;;;;;-11.18;90.33;102148.63;5054458;28;20047;-73
2021/12/09 05:19:24;;;;;;;6.85;5.15;;;;;;;-11.19;90.40;102158.38;5060516;28;20025;-73
2021/12/09 05:21:52;;;;;;;11.80;5.22;;;;;;;-11.21;90.41;102154.16;5023677;28;20049;-73
2021/12/09 05:24:19;;;;;;;13.27;6.30;;;;;;;-11.22;90.41;102157.75;5049015;28;20037;-73
2021/12/09 05:26:50;;;;;;;9.88;5.68;;;;;;;-11.25;90.45;102158.81;5045522;28;20068;-74
2021/12/09 05:29:17;;;;;;;14.50;6.07;;;;;;;-11.24;90.17;102154.34;5051305;28;20040;-74
2021/12/09 05:34:29;;;;;;;10.70;5.50;;;;;;;-11.23;90.42;102169.31;5077971;28;20055;-76
2021/12/09 05:36:54;;;;;;;17.95;6.15;;;;;;;-11.26;90.49;102170.34;5050903;28;20037;-74
2021/12/09 05:39:20;;;;;;;13.80;5.82;;;;;;;-11.27;90.51;102173.97;5052542;28;20044;-74
2021/12/09 05:41:47;;;;;;;13.80;4.95;;;;;;;-11.27;90.46;102171.31;5052439;28;20065;-74
2021/12/09 05:44:13;;;;;;;12.70;4.60;;;;;;;-11.28;90.52;102175.75;5033456;28;20036;-74
2021/12/09 05:46:42;;;;;;;11.45;4.15;;;;;;;-11.28;90.67;102172.22;5067043;28;20064;-74
2021/12/09 05:49:08;;;;;;;11.18;5.60;;;;;;;-11.32;90.66;102181.34;5084481;28;20029;-74
2021/12/09 05:51:35;;;;;;;10.63;6.20;;;;;;;-11.33;90.64;102175.19;5031110;28;20524;-74
2021/12/09 05:54:01;;;;;;;14.48;5.88;;;;;;;-11.35;90.60;102161.22;5049994;28;20036;-74
2021/12/09 05:56:27;;;;;;;12.45;5.75;;;;;;;-11.35;90.74;102173.59;5052056;28;20048;-74
2021/12/09 05:58:52;;;;;;;10.52;5.13;;;;;;;-11.37;90.26;102176.34;5052124;28;20037;-74
2021/12/09 06:01:20;;;;;;;14.07;6.78;;;;;;;-11.38;90.70;102184.41;5051954;28;20069;-74
2021/12/09 06:03:46;;;;;;;12.77;5.85;;;;;;;-11.42;90.70;102183.78;5050791;28;20103;-74
2021/12/09 06:06:11;;;;;;;10.27;5.57;;;;;;;-11.42;90.75;102191.72;5051701;28;20072;-74
2021/12/09 06:08:39;;;;;;;13.43;5.35;;;;;;;-11.44;90.82;102190.97;5050987;28;20086;-74
2021/12/09 06:11:09;;;;;;;11.65;4.97;;;;;;;-11.43;90.79;102187.38;5050842;28;20120;-74
2021/12/09 06:13:37;;;;;;;8.93;5.38;;;;;;;-11.44;90.68;102190.97;5050371;28;20040;-74
2021/12/09 06:16:04;;;;;;;11.38;5.28;;;;;;;-11.44;90.85;102187.47;5067072;28;20049;-74
2021/12/09 06:18:30;;;;;;;12.10;5.32;;;;;;;-11.46;90.85;102192.84;5051675;28;20037;-74
2021/12/09 06:20:56;;;;;;;10.82;5.13;;;;;;;-11.48;90.95;102194.75;5050635;28;20087;-74
2021/12/09 06:23:22;;;;;;;13.38;5.40;;;;;;;-11.49;90.42;102190.41;5033894;28;20499;-74
2021/12/09 06:25:50;;;;;;;11.57;5.13;;;;;;;-11.49;90.88;102201.00;5017760;28;20102;-74
2021/12/09 06:28:16;;;;;;;7.35;4.85;;;;;;;-11.49;90.80;102208.94;5051268;28;20039;-74
2021/12/09 06:30:43;;;;;;;6.95;4.28;;;;;;;-11.49;90.79;102205.44;5066865;28;20115;-74
2021/12/09 06:33:09;;;;;;;11.60;6.43;;;;;;;-11.48;90.79;102202.69;5033735;28;20029;-74
2021/12/09 06:35:35;;;;;;;14.00;5.28;;;;;;;-11.46;90.69;102211.38;5051290;28;20048;-74
2021/12/09 06:38:02;;;;;;;9.15;5.18;;;;;;;-11.45;90.85;102206.94;5051389;28;20111;-74
2021/12/09 06:40:27;;;;;;;8.85;5.35;;;;;;;-11.45;90.85;102210.47;5049823;28;20036;-74
2021/12/09 06:42:54;;;;;;;8.30;5.22;;;;;;;-11.45;90.82;102215.75;5050028;28;20090;-74
2021/12/09 06:45:21;;;;;;;12.85;5.55;;;;;;;-11.46;90.83;102211.38;5066291;28;20037;-74
2021/12/09 06:47:47;;;;;;;10.48;5.32;;;;;;;-11.47;90.87;102222.94;5083735;28;20040;-73
2021/12/09 06:50:15;;;;;;;9.18;5.00;;;;;;;-11.49;90.89;102224.81;5049771;28;20045;-73
2021/12/09 06:52:41;;;;;;;14.07;6.22;;;;;;;-11.48;90.85;102226.53;5034706;28;20115;-73
2021/12/09 06:55:09;;;;;;;12.68;6.00;;;;;;;-11.48;90.79;102231.81;5050824;28;20123;-73
2021/12/09 06:57:35;;;;;;;8.65;4.95;;;;;;;-11.48;90.99;102238.91;5049427;28;20037;-73
2021/12/09 07:00:01;;;;;;;12.73;5.78;;;;;;;-11.48;90.98;102231.81;5050955;28;20036;-73
2021/12/09 07:02:27;;;;;;;7.00;4.28;;;;;;;-11.47;90.97;102241.47;5049583;28;20059;-76
2021/12/09 07:04:53;;;;;;;8.20;5.10;;;;;;;-11.49;91.10;102240.72;5050850;28;20087;-74
2021/12/09 07:07:19;;;;;;;8.77;5.07;;;;;;;-11.48;91.05;102241.56;5032989;28;20124;-74
2021/12/09 07:09:44;;;;;;;9.93;5.05;;;;;;;-11.49;91.02;102248.66;5050750;28;20037;-74
2021/12/09 07:12:10;;;;;;;11.57;5.15;;;;;;;-11.47;91.07;102261.81;5050863;28;20163;-75
2021/12/09 07:14:36;;;;;;;10.65;5.20;;;;;;;-11.47;91.18;102256.50;5050370;28;20045;-74
2021/12/09 07:17:01;;;;;;;5.85;4.22;;;;;;;-11.48;91.13;102260.97;5049725;28;20043;-75
2021/12/09 07:19:27;;;;;;;12.52;4.82;;;;;;;-11.48;91.20;102255.66;5050799;28;20144;-74
2021/12/09 07:21:53;;;;;;;12.73;5.75;;;;;;;-11.48;91.32;102266.25;5050752;28;20096;-74
2021/12/09 07:24:18;;;;;;;9.13;3.95;;;;;;;-11.48;91.39;102257.47;5050688;28;20041;-75
2021/12/09 07:26:45;;;;;;;9.23;4.82;;;;;;;-11.47;91.18;102260.00;5064377;28;20598;-74
2021/12/09 07:29:11;;;;;;;8.48;4.63;;;;;;;-11.44;91.21;102264.28;5049451;28;20043;-74
2021/12/09 07:31:37;;;;;;;5.63;4.38;;;;;;;-11.43;91.25;102272.13;5058223;28;20036;-74
2021/12/09 07:34:03;;;;;;;8.20;5.15;;;;;;;-11.30;91.13;102275.66;5069116;28;20067;-74
2021/12/09 07:36:29;;;;;;;8.98;5.65;;;;;;;-11.14;91.02;102266.72;5049884;28;20068;-74
2021/12/09 07:38:54;;;;;;;10.18;5.47;;;;;;;-11.13;91.22;102271.06;5049983;28;20048;-74
2021/12/09 07:41:21;;;;;;;10.15;4.78;;;;;;;-11.01;91.17;102272.91;5049308;28;20103;-74
2021/12/09 07:43:49;;;;;;;9.27;4.82;;;;;;;-10.67;90.95;102282.97;5050562;28;20045;-74
2021/12/09 07:46:16;;;;;;;11.63;5.60;;;;;;;-10.10;90.38;102274.56;5049386;28;20036;-74
2021/12/09 07:48:41;;;;;;;11.13;6.90;;;;;;;-9.54;90.06;102277.69;5032625;28;20449;-74
2021/12/09 07:51:07;;;;;;;18.15;6.30;;;;;;;-9.12;90.16;102279.00;5050435;28;20083;-74
2021/12/09 07:53:33;;;;;;;13.32;5.88;;;;;;;-8.63;89.76;102271.84;5050292;28;20120;-74
2021/12/09 07:55:58;;;;;;;8.32;5.43;;;;;;;-8.10;89.44;102270.31;5065815;28;20040;-74
2021/12/09 07:58:24;;;;;;;10.23;5.35;;;;;;;-7.61;89.32;102269.13;5053941;28;20068;-74
2021/12/09 08:00:50;;;;;;;10.77;5.68;;;;;;;-7.15;89.09;102273.34;5053328;28;20071;-74
2021/12/09 08:03:16;;;;;;;6.97;4.63;;;;;;;-6.64;89.04;102265.50;5054373;28;20041;-74
2021/12/09 08:05:45;;;;;;;7.47;5.03;;;;;;;-6.11;88.82;102268.94;5036511;28;20040;-74
2021/12/09 08:08:11;;;;;;;10.38;5.60;;;;;;;-5.72;88.85;102270.94;5053217;28;20411;-74
2021/12/09 08:10:37;;;;;;;9.63;5.22;;;;;;;-5.37;88.85;102274.00;5036320;28;20552;-74
2021/12/09 08:13:04;;;;;;;8.05;5.47;;;;;;;-5.01;88.90;102269.00;5054220;28;20128;-74
2021/12/09 08:15:34;;;;;;;11.15;5.88;;;;;;;-4.63;88.90;102266.31;5036143;28;20037;-74
2021/12/09 08:18:02;;;;;;;10.80;5.45;;;;;;;-4.34;88.66;102276.13;5052993;28;20033;-74
2021/12/09 08:20:31;;;;;;;13.05;6.07;;;;;;;-4.40;88.64;102276.72;5036270;28;20037;-74
2021/12/09 08:22:57;;;;;;;10.23;4.00;;;;;;;-4.53;88.64;102277.00;5052889;28;20063;-74
2021/12/09 08:25:23;;;;;;;10.00;4.85;;;;;;;-4.57;88.79;102276.47;5052849;28;20527;-74
2021/12/09 08:27:50;;;;;;;11.30;4.38;;;;;;;-5.07;88.86;102285.59;5053708;28;20041;-74
2021/12/09 08:30:19;;;;;;;5.32;3.78;;;;;;;-5.61;89.50;102282.38;5052445;28;20037;-74
2021/12/09 08:32:45;;;;;;;10.73;5.00;;;;;;;-6.13;89.70;102278.06;5053036;28;20083;-74
2021/12/09 08:35:10;;;;;;;5.75;4.25;;;;;;;-6.47;89.76;102291.63;5052973;28;20041;-74
2021/12/09 08:37:36;;;;;;;5.13;3.30;;;;;;;-6.84;89.36;102285.88;5052598;28;20203;-74
2021/12/09 08:40:04;;;;;;;7.57;3.80;;;;;;;-7.20;88.81;102278.22;5051950;28;20033;-74
2021/12/09 08:42:30;;;;;;;8.13;4.35;;;;;;;-7.51;88.77;102277.19;5068838;28;20037;-74
2021/12/09 08:44:55;;;;;;;10.45;5.13;;;;;;;-7.82;88.11;102276.97;5052524;28;20033;-74
2021/12/09 08:47:21;;;;;;;7.00;4.22;;;;;;;-8.15;87.51;102296.47;5052346;28;20444;-74
2021/12/09 08:49:47;;;;;;;6.35;4.10;;;;;;;-8.36;87.27;102290.16;5052749;28;20048;-74
2021/12/09 08:52:13;;;;;;;11.15;5.35;;;;;;;-8.46;87.59;102290.03;5035802;28;20079;-74
2021/12/09 08:54:38;;;;;;;7.72;5.53;;;;;;;-8.64;87.61;102288.75;5053319;28;20068;-74
2021/12/09 08:57:04;;;;;;;11.93;6.03;;;;;;;-8.80;87.32;102282.91;5036061;28;20039;-74
2021/12/09 08:59:30;;;;;;;9.55;4.97;;;;;;;-8.91;87.35;102279.22;5053252;28;20048;-74
2021/12/09 09:01:56;;;;;;;9.13;4.93;;;;;;;-9.02;87.48;102284.50;5053264;28;20135;-74
2021/12/09 09:04:21;;;;;;;6.28;4.15;;;;;;;-9.12;87.47;102278.16;5053196;28;20048;-74
2021/12/09 09:06:50;;;;;;;8.13;4.22;;;;;;;-9.20;87.37;102276.09;5053532;28;20079;-74
2021/12/09 09:09:16;;;;;;;11.18;5.72;;;;;;;-9.27;87.36;102273.97;5052217;28;20028;-74
2021/12/09 09:11:42;;;;;;;12.77;6.20;;;;;;;-9.34;87.10;102273.56;5053443;28;20063;-74
2021/12/09 09:14:07;;;;;;;10.57;6.43;;;;;;;-9.40;87.16;102267.84;5048447;28;20040;-74
2021/12/09 09:16:33;;;;;;;10.27;5.57;;;;;;;-9.49;87.02;102270.22;5050732;28;20037;-74
2021/12/09 09:18:59;;;;;;;14.18;7.10;;;;;;;-9.55;86.87;102275.97;5050603;28;20041;-74
2021/12/09 09:21:25;;;;;;;13.23;5.68;;;;;;;-9.59;86.75;102277.16;5043691;28;20037;-74
2021/12/09 09:23:51;;;;;;;8.93;5.68;;;;;;;-9.60;86.81;102280.75;5068224;28;20079;-75
2021/12/09 09:26:17;;;;;;;17.67;7.68;;;;;;;-9.62;86.72;102277.38;5051378;28;20069;-74
2021/12/09 09:28:43;;;;;;;14.90;7.95;;;;;;;-9.62;86.71;102280.03;5052679;28;20098;-74
2021/12/09 09:31:09;;;;;;;16.23;7.65;;;;;;;-9.64;86.75;102278.44;5051022;28;20037;-74
2021/12/09 09:33:35;;;;;;;14.77;8.32;;;;;;;-9.62;86.70;102277.38;5055707;28;20047;-74
2021/12/09 09:36:00;;;;;;;23.52;8.82;;;;;;;-9.60;86.69;102283.41;5018227;28;20095;-74
2021/12/09 09:38:27;;;;;;;17.25;8.38;;;;;;;-9.59;86.62;102286.94;5050791;28;20663;-74
2021/12/09 09:41:09;;;;;;;20.02;9.23;;;;;;;-9.62;86.69;102284.50;5034587;28;20033;-75
2021/12/09 09:46:11;;;;;;;17.17;8.40;;;;;;;-9.66;86.56;102281.22;5051473;28;20082;-74
2021/12/09 09:48:37;;;;;;;18.37;8.37;;;;;;;-9.68;86.36;102285.78;5034567;28;20495;-74
2021/12/09 09:51:05;;;;;;;18.13;9.18;;;;;;;-9.74;86.34;102275.59;5067986;28;20037;-74
2021/12/09 09:53:32;;;;;;;20.80;11.20;;;;;;;-9.75;86.61;102289.81;5034680;28;20044;-74
2021/12/09 09:55:57;;;;;;;29.83;13.25;;;;;;;-9.79;86.58;102286.53;5048003;28;20065;-74
2021/12/09 09:58:25;;;;;;;24.80;13.00;;;;;;;-9.82;86.57;102285.91;5015602;28;20047;-75
2021/12/09 10:00:51;;;;;;;28.67;13.60;;;;;;;-9.84;86.86;102288.69;5052319;28;20045;-74
2021/12/09 10:03:18;;;;;;;24.23;11.50;;;;;;;-9.82;87.14;102296.53;5056322;28;20044;-74
2021/12/09 10:05:46;;;;;;;16.95;11.52;;;;;;;-9.85;87.17;102299.41;5051179;28;20123;-74
2021/12/09 10:08:14;;;;;;;22.10;10.95;;;;;;;-9.83;87.15;102297.50;5052100;28;20110;-74
2021/12/09 10:10:45;;;;;;;16.70;10.63;;;;;;;-9.83;87.25;102300.16;5035716;28;20044;-74
2021/12/09 10:13:13;;;;;;;20.75;9.68;;;;;;;-9.83;87.21;102303.66;5052051;28;20048;-74
2021/12/09 10:15:48;;;;;;;25.73;10.98;;;;;;;-9.84;87.20;102299.31;5050731;28;20052;-74
2021/12/09 10:18:32;;;;;;;22.08;9.93;;;;;;;-9.82;87.08;102301.84;5047719;28;20053;-74
2021/12/09 10:20:57;;;;;;;17.73;10.20;;;;;;;-9.80;87.15;102300.78;5038914;28;20123;-74
2021/12/09 10:23:33;;;;;;;20.60;9.95;;;;;;;-9.78;87.16;102306.84;5063923;28;20132;-74
2021/12/09 10:26:14;;;;;;;23.33;12.55;;;;;;;-9.73;87.13;102312.66;5083531;28;20040;-74
2021/12/09 10:28:42;;;;;;;30.17;12.52;;;;;;;-9.74;87.09;102310.97;5042880;28;20033;-74
2021/12/09 10:31:15;;;;;;;21.23;9.18;;;;;;;-9.75;87.17;102313.72;5037594;28;20120;-75
2021/12/09 10:33:58;;;;;;;19.58;12.13;;;;;;;-9.73;87.17;102301.19;5048406;28;20110;-74
2021/12/09 10:36:45;;;;;;;21.67;11.10;;;;;;;-9.73;87.32;102306.50;5048977;28;20041;-75
2021/12/09 10:39:23;;;;;;;15.93;9.23;;;;;;;-9.70;87.29;102302.81;5051645;28;20044;-75
2021/12/09 10:41:50;;;;;;;23.43;10.53;;;;;;;-9.69;87.43;102307.16;5030246;28;20080;-75
2021/12/09 10:44:16;;;;;;;21.02;11.10;;;;;;;-9.67;87.35;102310.56;5048045;28;20045;-76
2021/12/09 10:46:55;;;;;;;23.48;9.82;;;;;;;-9.66;87.46;102302.47;5032705;28;20047;-75
2021/12/09 10:49:21;;;;;;;19.92;9.88;;;;;;;-9.64;87.57;102307.66;5081769;28;20041;-75
2021/12/09 10:51:58;;;;;;;20.80;11.00;;;;;;;-9.64;87.39;102305.88;5050139;28;20127;-75
2021/12/09 10:54:32;;;;;;;20.50;10.63;;;;;;;-9.67;87.52;102300.78;5034649;28;20585;-75
2021/12/09 10:57:23;;;;;;;20.08;11.30;;;;;;;-9.67;87.68;102299.91;5049846;28;20123;-75
2021/12/09 10:59:50;;;;;;;23.98;10.30;;;;;;;-9.67;87.58;102302.56;5050901;28;20037;-75
2021/12/09 11:02:15;;;;;;;23.77;11.38;;;;;;;-9.73;87.66;102307.34;5050567;28;20167;-75
2021/12/09 11:04:57;;;;;;;18.98;10.25;;;;;;;-9.74;87.61;102299.50;5052029;28;20140;-75
2021/12/09 11:07:31;;;;;;;17.45;10.63;;;;;;;-9.75;87.73;102292.47;5050831;28;20037;-75
2021/12/09 11:10:26;;;;;;;19.55;9.75;;;;;;;-9.78;87.65;102298.00;5066597;28;20037;-74
2021/12/09 11:12:58;;;;;;;21.65;10.23;;;;;;;-9.81;87.71;102293.78;5083190;28;20079;-74
2021/12/09 11:15:45;;;;;;;20.92;10.70;;;;;;;-9.85;87.86;102297.63;5045791;28;20041;-74
2021/12/09 11:18:30;;;;;;;22.67;10.90;;;;;;;-9.83;87.71;102308.97;5044953;28;20037;-72
2021/12/09 11:20:56;;;;;;;32.30;14.30;;;;;;;-9.83;87.78;102313.44;5044277;28;20037;-74
2021/12/09 11:23:30;;;;;;;35.67;16.65;;;;;;;-9.86;88.01;102309.19;5049185;28;20041;-73